Time,TemperatureF,DewpointF,PressureIn,WindDirection,WindDirectionDegrees,WindSpeedMPH,WindSpeedGustMPH,Humidity,HourlyPrecipIn,Conditions,Clouds,dailyrainin,SoftwareType,DateUTC
2013-02-09 00:00:00,27.5,21.5,29.83,SW,218,2.7,4.0,78,0.00,,---,0.00,VWS V14.01,2013-02-08 23:00:00,
2013-02-09 00:05:00,27.5,21.9,29.83,SW,218,3.6,3.6,79,0.00,,---,0.00,VWS V14.01,2013-02-08 23:05:00,
2013-02-09 00:10:00,27.5,21.9,29.83,WNW,287,3.1,3.6,79,0.00,,---,0.00,VWS V14.01,2013-02-08 23:10:00,
2013-02-09 00:15:00,27.3,21.7,29.83,North,351,3.6,4.0,79,0.00,,---,0.00,VWS V14.01,2013-02-08 23:15:00,
2013-02-09 00:20:00,27.3,21.7,29.83,NW,320,2.7,3.6,79,0.00,,---,0.00,VWS V14.01,2013-02-08 23:20:00,
2013-02-09 00:25:00,27.1,21.5,29.83,NW,320,3.1,3.1,79,0.00,,---,0.00,VWS V14.01,2013-02-08 23:25:00,
2013-02-09 00:30:00,27.1,21.5,29.83,NW,316,0.0,0.0,79,0.00,,---,0.00,VWS V14.01,2013-02-08 23:30:00,
2013-02-09 00:35:00,27.0,21.3,29.83,NW,315,3.6,3.6,79,0.00,,---,0.00,VWS V14.01,2013-02-08 23:35:00,
2013-02-09 00:40:00,26.8,21.1,29.83,NW,315,0.0,0.0,79,0.00,,---,0.00,VWS V14.01,2013-02-08 23:40:00,
2013-02-09 00:45:00,26.6,21.0,29.83,NW,320,3.6,3.6,79,0.00,,---,0.00,VWS V14.01,2013-02-08 23:45:00,
2013-02-09 00:50:00,26.6,21.0,29.83,NW,320,3.1,3.1,79,0.00,,---,0.00,VWS V14.01,2013-02-08 23:50:00,
2013-02-09 00:55:00,26.6,21.0,29.83,NW,321,0.0,3.1,79,0.00,,---,0.00,VWS V14.01,2013-02-08 23:55:00,
2013-02-09 01:00:00,26.6,21.0,29.83,NW,321,0.0,0.0,79,0.00,,---,0.00,VWS V14.01,2013-02-09 00:00:00,
2013-02-09 01:05:00,26.6,21.0,29.83,NW,320,0.0,2.7,79,0.00,,---,0.00,VWS V14.01,2013-02-09 00:05:00,
2013-02-09 01:10:00,26.6,21.0,29.83,NW,321,0.0,3.1,79,0.00,,---,0.00,VWS V14.01,2013-02-09 00:10:00,
2013-02-09 01:15:00,26.4,20.8,29.83,NW,326,3.1,4.0,79,0.00,,---,0.00,VWS V14.01,2013-02-09 00:15:00,
2013-02-09 01:20:00,26.2,20.6,29.83,NNW,327,3.1,3.6,79,0.00,,---,0.00,VWS V14.01,2013-02-09 00:20:00,
2013-02-09 01:25:00,26.2,20.6,29.85,NNW,332,0.0,2.7,79,0.00,,---,0.00,VWS V14.01,2013-02-09 00:25:00,
2013-02-09 01:30:00,26.1,20.5,29.85,NNW,332,0.0,3.1,79,0.00,,---,0.00,VWS V14.01,2013-02-09 00:30:00,
2013-02-09 01:35:00,26.1,20.5,29.85,NNW,332,0.0,0.0,79,0.00,,---,0.00,VWS V14.01,2013-02-09 00:35:00,
2013-02-09 01:40:00,26.1,20.8,29.85,NNW,332,0.0,0.0,80,0.00,,---,0.00,VWS V14.01,2013-02-09 00:40:00,
2013-02-09 01:45:00,26.1,20.8,29.85,NNW,332,0.0,0.0,80,0.00,,---,0.00,VWS V14.01,2013-02-09 00:45:00,
2013-02-09 01:50:00,26.1,20.8,29.85,NNW,332,0.0,0.0,80,0.00,,---,0.00,VWS V14.01,2013-02-09 00:50:00,
2013-02-09 01:55:00,25.9,20.6,29.85,NNW,332,0.0,0.0,80,0.00,,---,0.00,VWS V14.01,2013-02-09 00:55:00,
2013-02-09 02:00:00,25.9,20.6,29.85,NNW,332,0.0,0.0,80,0.00,,---,0.00,VWS V14.01,2013-02-09 01:00:00,
2013-02-09 02:05:00,25.9,20.6,29.85,NNW,332,0.0,3.6,80,0.00,,---,0.00,VWS V14.01,2013-02-09 01:05:00,
2013-02-09 02:10:00,25.7,20.4,29.85,NNW,331,0.0,3.6,80,0.00,,---,0.00,VWS V14.01,2013-02-09 01:10:00,
2013-02-09 02:15:00,25.7,20.7,29.85,NNW,331,3.1,4.0,81,0.00,,---,0.00,VWS V14.01,2013-02-09 01:15:00,
2013-02-09 02:20:00,25.5,20.5,29.85,NNW,331,0.0,2.7,81,0.00,,---,0.00,VWS V14.01,2013-02-09 01:20:00,
2013-02-09 02:25:00,25.5,20.5,29.85,NNW,332,2.7,3.1,81,0.00,,---,0.00,VWS V14.01,2013-02-09 01:25:00,
2013-02-09 02:30:00,25.5,20.5,29.85,NNW,332,3.1,4.0,81,0.00,,---,0.00,VWS V14.01,2013-02-09 01:30:00,
2013-02-09 02:36:00,25.3,20.3,29.85,NNW,331,0.0,3.1,81,0.00,,---,0.00,VWS V14.01,2013-02-09 01:36:00,
2013-02-09 02:41:00,25.2,20.2,29.85,NNW,343,0.0,3.1,81,0.00,,---,0.00,VWS V14.01,2013-02-09 01:41:00,
2013-02-09 02:46:00,25.2,20.2,29.85,NNW,341,0.0,3.1,81,0.00,,---,0.00,VWS V14.01,2013-02-09 01:46:00,
2013-02-09 02:51:00,25.2,20.2,29.85,NNW,341,0.0,0.0,81,0.00,,---,0.00,VWS V14.01,2013-02-09 01:51:00,
2013-02-09 02:56:00,25.2,20.2,29.85,NNW,341,0.0,0.0,81,0.00,,---,0.00,VWS V14.01,2013-02-09 01:56:00,
2013-02-09 03:01:00,25.0,20.0,29.85,NNW,341,0.0,0.0,81,0.00,,---,0.00,VWS V14.01,2013-02-09 02:01:00,
2013-02-09 03:06:00,25.2,20.2,29.85,NNW,341,0.0,0.0,81,0.00,,---,0.00,VWS V14.01,2013-02-09 02:06:00,
2013-02-09 03:11:00,25.0,20.0,29.85,NNW,341,0.0,3.6,81,0.00,,---,0.00,VWS V14.01,2013-02-09 02:11:00,
2013-02-09 03:16:00,25.0,20.0,29.85,NNW,341,0.0,4.0,81,0.00,,---,0.00,VWS V14.01,2013-02-09 02:16:00,
2013-02-09 03:21:00,25.0,20.3,29.85,NNW,341,3.6,4.5,82,0.00,,---,0.00,VWS V14.01,2013-02-09 02:21:00,
2013-02-09 03:26:00,25.0,20.3,29.85,NNW,341,0.0,0.0,82,0.00,,---,0.00,VWS V14.01,2013-02-09 02:26:00,
2013-02-09 03:31:00,25.0,20.3,29.85,NNW,341,2.7,3.6,82,0.00,,---,0.00,VWS V14.01,2013-02-09 02:31:00,
2013-02-09 03:36:00,25.0,20.3,29.85,NNW,341,0.0,2.7,82,0.00,,---,0.00,VWS V14.01,2013-02-09 02:36:00,
2013-02-09 03:41:00,25.0,20.3,29.85,NNW,341,0.0,2.7,82,0.00,,---,0.00,VWS V14.01,2013-02-09 02:41:00,
2013-02-09 03:46:00,24.8,20.1,29.85,NNW,341,0.0,3.1,82,0.00,,---,0.00,VWS V14.01,2013-02-09 02:46:00,
2013-02-09 03:51:00,24.8,20.1,29.85,NNW,341,0.0,2.7,82,0.00,,---,0.00,VWS V14.01,2013-02-09 02:51:00,
2013-02-09 03:56:00,24.8,20.1,29.85,NNW,341,3.1,3.6,82,0.00,,---,0.00,VWS V14.01,2013-02-09 02:56:00,
2013-02-09 04:01:00,25.0,20.3,29.85,NNW,337,0.0,2.7,82,0.00,,---,0.00,VWS V14.01,2013-02-09 03:01:00,
2013-02-09 04:06:00,24.6,19.9,29.85,NNW,337,2.7,4.0,82,0.00,,---,0.00,VWS V14.01,2013-02-09 03:06:00,
2013-02-09 04:10:00,24.6,19.9,29.85,NNW,337,3.1,3.6,82,0.00,,---,0.00,VWS V14.01,2013-02-09 03:10:00,
2013-02-09 04:16:00,24.6,19.9,29.85,NNW,341,3.6,5.8,82,0.00,,---,0.00,VWS V14.01,2013-02-09 03:16:00,
2013-02-09 04:21:00,24.6,19.9,29.85,NW,312,3.6,4.9,82,0.00,,---,0.00,VWS V14.01,2013-02-09 03:21:00,
2013-02-09 04:26:00,24.8,20.4,29.85,NNW,334,3.1,4.5,83,0.00,,---,0.00,VWS V14.01,2013-02-09 03:26:00,
2013-02-09 04:31:00,24.8,20.4,29.85,NNW,339,5.8,6.3,83,0.00,,---,0.00,VWS V14.01,2013-02-09 03:31:00,
2013-02-09 04:36:00,24.8,20.4,29.85,NW,325,0.0,3.6,83,0.00,,---,0.00,VWS V14.01,2013-02-09 03:36:00,
2013-02-09 04:41:00,25.0,20.6,29.85,NNW,343,3.6,4.9,83,0.00,,---,0.00,VWS V14.01,2013-02-09 03:41:00,
2013-02-09 04:46:00,25.0,20.6,29.85,NNW,338,3.6,4.5,83,0.00,,---,0.00,VWS V14.01,2013-02-09 03:46:00,
2013-02-09 04:51:00,24.8,20.4,29.85,NNW,336,2.7,4.5,83,0.00,,---,0.00,VWS V14.01,2013-02-09 03:51:00,
2013-02-09 04:56:00,24.8,20.4,29.85,NNW,347,3.1,4.5,83,0.00,,---,0.00,VWS V14.01,2013-02-09 03:56:00,
2013-02-09 05:01:00,24.6,20.2,29.85,NNW,342,3.1,4.9,83,0.00,,---,0.00,VWS V14.01,2013-02-09 04:01:00,
2013-02-09 05:06:00,24.6,20.2,29.85,NNW,339,3.1,4.0,83,0.00,,---,0.00,VWS V14.01,2013-02-09 04:06:00,
2013-02-09 05:11:00,24.6,20.2,29.85,NNW,346,4.0,6.7,83,0.00,,---,0.00,VWS V14.01,2013-02-09 04:11:00,
2013-02-09 05:16:00,24.6,20.2,29.85,NNW,338,4.9,4.9,83,0.00,,---,0.00,VWS V14.01,2013-02-09 04:16:00,
2013-02-09 05:21:00,24.4,20.3,29.85,North,0,5.4,5.4,84,0.00,,---,0.00,VWS V14.01,2013-02-09 04:21:00,
2013-02-09 05:26:00,24.4,20.3,29.85,NNW,347,4.0,6.3,84,0.00,,---,0.00,VWS V14.01,2013-02-09 04:26:00,
2013-02-09 05:31:00,24.6,20.8,29.85,NNW,343,3.6,4.5,85,0.00,,---,0.00,VWS V14.01,2013-02-09 04:31:00,
2013-02-09 05:36:00,24.6,20.8,29.85,NNW,328,3.1,4.5,85,0.00,,---,0.00,VWS V14.01,2013-02-09 04:36:00,
2013-02-09 05:41:00,24.6,20.8,29.85,NNW,335,3.1,4.9,85,0.00,,---,0.00,VWS V14.01,2013-02-09 04:41:00,
2013-02-09 05:46:00,24.6,20.8,29.85,NNW,342,4.5,4.5,85,0.00,,---,0.00,VWS V14.01,2013-02-09 04:46:00,
2013-02-09 05:51:00,24.6,21.0,29.85,North,351,3.1,4.0,86,0.00,,---,0.00,VWS V14.01,2013-02-09 04:51:00,
2013-02-09 05:56:00,24.6,21.0,29.85,NNW,338,2.7,4.5,86,0.00,,---,0.00,VWS V14.01,2013-02-09 04:56:00,
2013-02-09 06:00:00,24.6,21.0,29.85,NNW,333,0.0,2.7,86,0.00,,---,0.00,VWS V14.01,2013-02-09 05:00:00,
2013-02-09 06:01:00,24.6,21.0,29.85,NNW,347,3.6,4.0,86,0.00,,---,0.00,VWS V14.01,2013-02-09 05:01:00,
2013-02-09 06:06:00,24.6,21.0,29.85,NNW,343,2.7,3.1,86,0.00,,---,0.00,VWS V14.01,2013-02-09 05:06:00,
2013-02-09 06:11:00,24.4,20.9,29.85,NNW,340,0.0,0.0,86,0.00,,---,0.00,VWS V14.01,2013-02-09 05:11:00,
2013-02-09 06:16:00,24.4,20.6,29.85,NNW,340,0.0,0.0,85,0.00,,---,0.00,VWS V14.01,2013-02-09 05:16:00,
2013-02-09 06:21:00,24.4,20.9,29.85,NNW,340,0.0,0.0,86,0.00,,---,0.00,VWS V14.01,2013-02-09 05:21:00,
2013-02-09 06:26:00,24.4,20.9,29.85,NNW,340,2.7,3.6,86,0.00,,---,0.00,VWS V14.01,2013-02-09 05:26:00,
2013-02-09 06:31:00,24.4,20.9,29.85,NW,316,3.1,3.1,86,0.00,,---,0.00,VWS V14.01,2013-02-09 05:31:00,
2013-02-09 06:36:00,24.3,20.7,29.85,NNW,341,3.6,3.6,86,0.00,,---,0.00,VWS V14.01,2013-02-09 05:36:00,
2013-02-09 06:41:00,24.1,20.2,29.85,NNW,338,3.1,3.6,85,0.00,,---,0.00,VWS V14.01,2013-02-09 05:41:00,
2013-02-09 06:46:00,23.9,20.1,29.85,NNW,327,3.6,4.0,85,0.00,,---,0.00,VWS V14.01,2013-02-09 05:46:00,
2013-02-09 06:51:00,23.9,20.3,29.85,NNW,341,0.0,3.6,86,0.00,,---,0.00,VWS V14.01,2013-02-09 05:51:00,
2013-02-09 06:56:00,23.7,20.1,29.85,NNW,342,0.0,0.0,86,0.00,,---,0.00,VWS V14.01,2013-02-09 05:56:00,
2013-02-09 07:01:00,23.5,20.0,29.85,NNW,342,0.0,0.0,86,0.00,,---,0.00,VWS V14.01,2013-02-09 06:01:00,
2013-02-09 07:06:00,23.7,20.1,29.85,NNW,342,2.7,2.7,86,0.00,,---,0.00,VWS V14.01,2013-02-09 06:06:00,
2013-02-09 07:11:00,23.7,20.1,29.85,West,276,0.0,0.0,86,0.00,,---,0.00,VWS V14.01,2013-02-09 06:11:00,
2013-02-09 07:16:00,23.9,20.3,29.85,West,276,0.0,0.0,86,0.00,,---,0.00,VWS V14.01,2013-02-09 06:16:00,
2013-02-09 07:21:00,23.9,20.6,29.85,West,277,4.5,4.5,87,0.00,,---,0.00,VWS V14.01,2013-02-09 06:21:00,
2013-02-09 07:26:00,23.9,20.6,29.88,WNW,296,0.0,0.0,87,0.00,,---,0.00,VWS V14.01,2013-02-09 06:26:00,
2013-02-09 07:31:00,23.9,20.6,29.88,North,351,4.0,4.5,87,0.00,,---,0.00,VWS V14.01,2013-02-09 06:31:00,
2013-02-09 07:36:00,23.9,20.6,29.88,NW,326,3.6,3.6,87,0.00,,---,0.00,VWS V14.01,2013-02-09 06:36:00,
2013-02-09 07:41:00,24.1,20.8,29.85,ESE,118,4.9,4.9,87,0.00,,---,0.00,VWS V14.01,2013-02-09 06:41:00,
2013-02-09 07:46:00,24.3,21.0,29.85,North,8,2.7,4.0,87,0.00,,---,0.00,VWS V14.01,2013-02-09 06:46:00,
2013-02-09 07:51:00,24.6,21.3,29.85,NNW,343,4.9,4.9,87,0.00,,---,0.00,VWS V14.01,2013-02-09 06:51:00,
2013-02-09 07:56:00,24.6,21.6,29.88,WNW,288,6.3,7.8,88,0.00,,---,0.00,VWS V14.01,2013-02-09 06:56:00,
2013-02-09 08:01:00,25.0,21.9,29.88,North,351,3.6,4.9,88,0.00,,---,0.00,VWS V14.01,2013-02-09 07:01:00,
2013-02-09 08:06:00,25.2,22.1,29.88,WNW,285,6.7,6.7,88,0.00,,---,0.00,VWS V14.01,2013-02-09 07:06:00,
2013-02-09 08:11:00,25.3,22.0,29.88,North,351,0.0,3.1,87,0.00,,---,0.00,VWS V14.01,2013-02-09 07:11:00,
2013-02-09 08:16:00,25.5,22.2,29.88,North,351,3.1,3.6,87,0.00,,---,0.00,VWS V14.01,2013-02-09 07:16:00,
2013-02-09 08:21:00,25.5,22.2,29.88,North,351,0.0,3.1,87,0.00,,---,0.00,VWS V14.01,2013-02-09 07:21:00,
2013-02-09 08:26:00,25.7,22.4,29.88,North,351,0.0,4.5,87,0.00,,---,0.00,VWS V14.01,2013-02-09 07:26:00,
2013-02-09 08:31:00,25.7,22.1,29.88,North,351,4.0,4.0,86,0.00,,---,0.00,VWS V14.01,2013-02-09 07:31:00,
2013-02-09 08:36:00,25.9,22.3,29.88,NNW,333,4.9,4.9,86,0.00,,---,0.00,VWS V14.01,2013-02-09 07:36:00,
2013-02-09 08:41:00,26.1,22.2,29.88,North,351,0.0,4.9,85,0.00,,---,0.00,VWS V14.01,2013-02-09 07:41:00,
2013-02-09 08:46:00,26.2,22.4,29.88,North,1,4.9,4.9,85,0.00,,---,0.00,VWS V14.01,2013-02-09 07:46:00,
2013-02-09 08:51:00,26.4,22.5,29.88,WNW,284,0.0,3.6,85,0.00,,---,0.00,VWS V14.01,2013-02-09 07:51:00,
2013-02-09 08:56:00,26.6,22.4,29.88,North,351,3.6,4.9,84,0.00,,---,0.00,VWS V14.01,2013-02-09 07:56:00,
2013-02-09 09:01:00,26.6,22.4,29.88,North,351,4.9,4.9,84,0.00,,---,0.00,VWS V14.01,2013-02-09 08:01:00,
2013-02-09 09:06:00,26.8,22.6,29.88,North,351,0.0,0.0,84,0.00,,---,0.00,VWS V14.01,2013-02-09 08:06:00,
2013-02-09 09:11:00,27.0,22.8,29.88,North,351,0.0,2.7,84,0.00,,---,0.00,VWS V14.01,2013-02-09 08:11:00,
2013-02-09 09:16:00,27.1,22.7,29.88,North,351,2.7,3.6,83,0.00,,---,0.00,VWS V14.01,2013-02-09 08:16:00,
2013-02-09 09:21:00,27.3,22.9,29.88,North,351,0.0,3.6,83,0.00,,---,0.00,VWS V14.01,2013-02-09 08:21:00,
2013-02-09 09:26:00,27.5,23.0,29.88,NNW,337,0.0,0.0,83,0.00,,---,0.00,VWS V14.01,2013-02-09 08:26:00,
2013-02-09 09:31:00,27.9,23.4,29.88,NNW,337,2.7,2.7,83,0.00,,---,0.00,VWS V14.01,2013-02-09 08:31:00,
2013-02-09 09:36:00,28.0,23.5,29.88,West,268,3.1,3.1,83,0.00,,---,0.00,VWS V14.01,2013-02-09 08:36:00,
2013-02-09 09:41:00,28.4,23.9,29.88,West,268,0.0,3.1,83,0.00,,---,0.00,VWS V14.01,2013-02-09 08:41:00,
2013-02-09 09:46:00,28.8,24.3,29.88,West,268,3.1,3.6,83,0.00,,---,0.00,VWS V14.01,2013-02-09 08:46:00,
2013-02-09 09:51:00,29.1,24.6,29.88,NNW,342,0.0,0.0,83,0.00,,---,0.00,VWS V14.01,2013-02-09 08:51:00,
2013-02-09 09:56:00,29.3,24.8,29.88,North,351,3.1,4.0,83,0.00,,---,0.00,VWS V14.01,2013-02-09 08:56:00,
2013-02-09 10:01:00,29.5,24.7,29.88,North,356,3.6,5.4,82,0.00,,---,0.00,VWS V14.01,2013-02-09 09:01:00,
2013-02-09 10:06:00,29.5,24.4,29.88,NNW,337,3.6,4.5,81,0.00,,---,0.00,VWS V14.01,2013-02-09 09:06:00,
2013-02-09 10:11:00,29.8,24.4,29.88,West,279,4.9,4.9,80,0.00,,---,0.00,VWS V14.01,2013-02-09 09:11:00,
2013-02-09 10:16:00,30.4,24.7,29.88,NNW,347,4.0,4.0,79,0.00,,---,0.00,VWS V14.01,2013-02-09 09:16:00,
2013-02-09 10:21:00,30.4,24.4,29.88,North,351,5.4,5.4,78,0.00,,---,0.00,VWS V14.01,2013-02-09 09:21:00,
2013-02-09 10:26:00,30.2,23.9,29.88,North,351,4.0,4.9,77,0.00,,---,0.00,VWS V14.01,2013-02-09 09:26:00,
2013-02-09 10:31:00,30.4,23.7,29.88,NNW,336,4.5,4.9,76,0.00,,---,0.00,VWS V14.01,2013-02-09 09:31:00,
2013-02-09 10:36:00,30.2,22.9,29.88,North,356,5.4,5.4,74,0.00,,---,0.00,VWS V14.01,2013-02-09 09:36:00,
2013-02-09 10:41:00,30.2,22.9,29.88,NNW,333,3.6,3.6,74,0.00,,---,0.00,VWS V14.01,2013-02-09 09:41:00,
2013-02-09 10:46:00,30.4,22.8,29.88,North,351,5.4,5.8,73,0.00,,---,0.00,VWS V14.01,2013-02-09 09:46:00,
2013-02-09 10:51:00,30.4,22.8,29.88,NNW,346,4.0,4.9,73,0.00,,---,0.00,VWS V14.01,2013-02-09 09:51:00,
2013-02-09 10:56:00,30.6,23.0,29.88,NNW,336,0.0,3.1,73,0.00,,---,0.00,VWS V14.01,2013-02-09 09:56:00,
2013-02-09 11:01:00,30.9,23.3,29.88,WNW,300,3.6,4.5,73,0.00,,---,0.00,VWS V14.01,2013-02-09 10:01:00,
2013-02-09 11:06:00,31.1,23.5,29.88,NW,311,3.1,3.6,73,0.00,,---,0.00,VWS V14.01,2013-02-09 10:06:00,
2013-02-09 11:11:00,31.3,23.3,29.91,NW,325,0.0,3.1,72,0.00,,---,0.00,VWS V14.01,2013-02-09 10:11:00,
2013-02-09 11:16:00,31.5,23.5,29.91,NNW,341,3.1,3.6,72,0.00,,---,0.00,VWS V14.01,2013-02-09 10:16:00,
2013-02-09 11:21:00,31.8,23.8,29.91,NNW,336,5.8,6.3,72,0.00,,---,0.00,VWS V14.01,2013-02-09 10:21:00,
2013-02-09 11:26:00,31.8,23.2,29.88,WNW,290,4.9,4.9,70,0.00,,---,0.00,VWS V14.01,2013-02-09 10:26:00,
2013-02-09 11:31:00,32.0,23.0,29.88,NNW,343,4.0,4.5,69,0.00,,---,0.00,VWS V14.01,2013-02-09 10:31:00,
2013-02-09 11:36:00,32.2,23.2,29.88,WNW,303,2.7,3.1,69,0.00,,---,0.00,VWS V14.01,2013-02-09 10:36:00,
2013-02-09 11:41:00,32.2,22.5,29.88,NNW,328,3.1,4.5,67,0.00,,---,0.00,VWS V14.01,2013-02-09 10:41:00,
2013-02-09 11:46:00,32.5,22.1,29.88,NW,310,5.4,7.8,65,0.00,,---,0.00,VWS V14.01,2013-02-09 10:46:00,
2013-02-09 11:51:00,32.7,21.9,29.88,North,351,5.8,5.8,64,0.00,,---,0.00,VWS V14.01,2013-02-09 10:51:00,
2013-02-09 11:56:00,32.7,20.8,29.88,NNW,343,4.5,6.3,61,0.00,,---,0.00,VWS V14.01,2013-02-09 10:56:00,
2013-02-09 12:01:00,32.7,20.8,29.88,NNW,347,4.5,5.8,61,0.00,,---,0.00,VWS V14.01,2013-02-09 11:01:00,
2013-02-09 12:06:00,33.1,21.5,29.88,WNW,289,8.3,8.7,62,0.00,,---,0.00,VWS V14.01,2013-02-09 11:06:00,
2013-02-09 12:11:00,33.4,21.1,29.88,NNW,343,2.7,5.4,60,0.00,,---,0.00,VWS V14.01,2013-02-09 11:11:00,
2013-02-09 12:16:00,33.3,20.1,29.88,North,351,4.9,6.7,58,0.00,,---,0.00,VWS V14.01,2013-02-09 11:16:00,
2013-02-09 12:21:00,33.1,19.5,29.88,NNW,337,6.9,6.9,57,0.00,,---,0.00,VWS V14.01,2013-02-09 11:21:00,
2013-02-09 12:26:00,33.1,19.5,29.88,North,0,2.7,5.4,57,0.00,,---,0.00,VWS V14.01,2013-02-09 11:26:00,
2013-02-09 12:31:00,32.9,19.4,29.88,North,351,4.5,6.3,57,0.00,,---,0.00,VWS V14.01,2013-02-09 11:31:00,
2013-02-09 12:36:00,32.9,19.4,29.88,NNW,344,3.6,5.8,57,0.00,,---,0.00,VWS V14.01,2013-02-09 11:36:00,
2013-02-09 12:41:00,33.1,19.9,29.88,North,5,2.7,4.5,58,0.00,,---,0.00,VWS V14.01,2013-02-09 11:41:00,
2013-02-09 12:46:00,33.3,20.1,29.88,North,351,4.9,5.8,58,0.00,,---,0.00,VWS V14.01,2013-02-09 11:46:00,
2013-02-09 12:51:00,33.3,19.7,29.88,North,351,0.0,4.0,57,0.00,,---,0.00,VWS V14.01,2013-02-09 11:51:00,
2013-02-09 12:56:00,33.3,19.3,29.88,NW,316,6.3,6.9,56,0.00,,---,0.00,VWS V14.01,2013-02-09 11:56:00,
2013-02-09 13:01:00,33.3,19.3,29.88,NW,321,2.7,3.6,56,0.00,,---,0.00,VWS V14.01,2013-02-09 12:01:00,
2013-02-09 13:06:00,33.3,19.7,29.88,North,351,3.1,4.0,57,0.00,,---,0.00,VWS V14.01,2013-02-09 12:06:00,
2013-02-09 13:11:00,33.3,19.7,29.88,NNW,331,2.7,3.1,57,0.00,,---,0.00,VWS V14.01,2013-02-09 12:11:00,
2013-02-09 13:16:00,33.3,20.1,29.88,NNW,334,4.9,7.4,58,0.00,,---,0.00,VWS V14.01,2013-02-09 12:16:00,
2013-02-09 13:21:00,33.1,19.5,29.88,NNW,341,6.3,6.3,57,0.00,,---,0.00,VWS V14.01,2013-02-09 12:21:00,
2013-02-09 13:26:00,32.9,19.8,29.88,NNW,347,0.0,3.6,58,0.00,,---,0.00,VWS V14.01,2013-02-09 12:26:00,
2013-02-09 13:31:00,32.9,19.8,29.88,SE,125,3.1,4.0,58,0.00,,---,0.00,VWS V14.01,2013-02-09 12:31:00,
2013-02-09 13:36:00,32.9,20.5,29.88,SSE,148,3.1,4.9,60,0.00,,---,0.00,VWS V14.01,2013-02-09 12:36:00,
2013-02-09 13:41:00,32.9,20.9,29.88,NNW,335,0.0,4.9,61,0.00,,---,0.00,VWS V14.01,2013-02-09 12:41:00,
2013-02-09 13:46:00,32.9,21.3,29.88,NW,312,4.5,4.9,62,0.00,,---,0.00,VWS V14.01,2013-02-09 12:46:00,
2013-02-09 13:51:00,32.9,21.7,29.88,WNW,287,2.7,4.9,63,0.00,,---,0.00,VWS V14.01,2013-02-09 12:51:00,
2013-02-09 13:56:00,33.3,22.4,29.88,WNW,283,6.3,6.9,64,0.00,,---,0.00,VWS V14.01,2013-02-09 12:56:00,
2013-02-09 14:01:00,33.1,22.2,29.88,North,351,0.0,3.6,64,0.00,,---,0.00,VWS V14.01,2013-02-09 13:01:00,
2013-02-09 14:06:00,32.7,22.3,29.88,North,351,3.1,4.9,65,0.00,,---,0.00,VWS V14.01,2013-02-09 13:06:00,
2013-02-09 14:11:00,32.4,22.6,29.88,NW,304,3.6,4.5,67,0.00,,---,0.00,VWS V14.01,2013-02-09 13:11:00,
2013-02-09 14:16:00,32.4,22.6,29.88,NW,306,4.9,4.9,67,0.00,,---,0.00,VWS V14.01,2013-02-09 13:16:00,
2013-02-09 14:21:00,32.5,23.5,29.88,WNW,283,3.6,6.7,69,0.00,,---,0.00,VWS V14.01,2013-02-09 13:21:00,
2013-02-09 14:26:00,32.7,24.0,29.88,WNW,288,6.9,7.4,70,0.00,,---,0.00,VWS V14.01,2013-02-09 13:26:00,
2013-02-09 14:32:00,32.7,24.4,29.88,WNW,291,6.3,7.4,71,0.00,,---,0.00,VWS V14.01,2013-02-09 13:32:00,
2013-02-09 14:37:00,32.9,24.5,29.88,WNW,292,4.0,5.8,71,0.00,,---,0.00,VWS V14.01,2013-02-09 13:37:00,
2013-02-09 14:42:00,32.5,24.2,29.88,WNW,303,0.0,5.4,71,0.00,,---,0.00,VWS V14.01,2013-02-09 13:42:00,
2013-02-09 14:47:00,32.2,24.2,29.88,NNW,332,4.0,4.0,72,0.00,,---,0.00,VWS V14.01,2013-02-09 13:47:00,
2013-02-09 14:52:00,31.8,24.5,29.88,NNW,334,5.4,6.7,74,0.00,,---,0.00,VWS V14.01,2013-02-09 13:52:00,
2013-02-09 14:57:00,31.8,24.8,29.88,West,274,7.4,9.2,75,0.00,,---,0.00,VWS V14.01,2013-02-09 13:57:00,
2013-02-09 15:02:00,32.2,25.5,29.88,WNW,288,6.7,8.7,76,0.00,,---,0.00,VWS V14.01,2013-02-09 14:02:00,
2013-02-09 15:07:00,32.2,25.8,29.88,WNW,289,7.4,8.3,77,0.00,,---,0.00,VWS V14.01,2013-02-09 14:07:00,
2013-02-09 15:12:00,32.4,26.0,29.91,WNW,288,5.8,8.7,77,0.00,,---,0.00,VWS V14.01,2013-02-09 14:12:00,
2013-02-09 15:17:00,32.4,26.0,29.91,West,272,8.3,8.3,77,0.00,,---,0.00,VWS V14.01,2013-02-09 14:17:00,
2013-02-09 15:22:00,32.4,26.0,29.91,West,276,7.8,8.3,77,0.00,,---,0.00,VWS V14.01,2013-02-09 14:22:00,
2013-02-09 15:27:00,32.2,26.1,29.88,WNW,285,5.4,6.7,78,0.00,,---,0.00,VWS V14.01,2013-02-09 14:27:00,
2013-02-09 15:32:00,32.0,25.9,29.88,WNW,290,6.9,8.3,78,0.00,,---,0.00,VWS V14.01,2013-02-09 14:32:00,
2013-02-09 15:37:00,32.0,26.2,29.88,WNW,300,3.6,5.4,79,0.00,,---,0.00,VWS V14.01,2013-02-09 14:37:00,
2013-02-09 15:42:00,31.8,26.1,29.88,WNW,283,5.4,6.9,79,0.00,,---,0.00,VWS V14.01,2013-02-09 14:42:00,
2013-02-09 15:47:00,32.0,26.2,29.88,WNW,291,6.3,6.9,79,0.00,,---,0.00,VWS V14.01,2013-02-09 14:47:00,
2013-02-09 15:52:00,32.0,26.2,29.88,WNW,290,4.5,5.4,79,0.00,,---,0.00,VWS V14.01,2013-02-09 14:52:00,
2013-02-09 15:57:00,32.2,26.7,29.88,WNW,284,5.4,6.7,80,0.00,,---,0.00,VWS V14.01,2013-02-09 14:57:00,
2013-02-09 16:02:00,32.2,26.7,29.88,West,281,4.9,5.4,80,0.00,,---,0.00,VWS V14.01,2013-02-09 15:02:00,
2013-02-09 16:07:00,32.2,26.7,29.88,WNW,283,5.4,6.3,80,0.00,,---,0.00,VWS V14.01,2013-02-09 15:07:00,
2013-02-09 16:12:00,32.2,26.7,29.88,WNW,291,6.9,6.9,80,0.00,,---,0.00,VWS V14.01,2013-02-09 15:12:00,
2013-02-09 16:17:00,32.2,26.7,29.88,WNW,296,4.5,5.8,80,0.00,,---,0.00,VWS V14.01,2013-02-09 15:17:00,
2013-02-09 16:22:00,32.0,26.5,29.88,West,280,5.4,6.3,80,0.00,,---,0.00,VWS V14.01,2013-02-09 15:22:00,
2013-02-09 16:27:00,32.0,26.5,29.91,WNW,283,5.8,6.7,80,0.00,,---,0.00,VWS V14.01,2013-02-09 15:27:00,
2013-02-09 16:32:00,32.0,26.5,29.91,WNW,282,4.0,5.8,80,0.00,,---,0.00,VWS V14.01,2013-02-09 15:32:00,
2013-02-09 16:37:00,32.0,26.5,29.91,WNW,284,6.7,6.7,80,0.00,,---,0.00,VWS V14.01,2013-02-09 15:37:00,
2013-02-09 16:42:00,31.8,26.4,29.88,WNW,287,5.8,7.8,80,0.00,,---,0.00,VWS V14.01,2013-02-09 15:42:00,
2013-02-09 16:47:00,31.8,26.4,29.88,West,280,5.4,6.7,80,0.00,,---,0.00,VWS V14.01,2013-02-09 15:47:00,
2013-02-09 16:52:00,31.8,26.4,29.88,West,277,4.5,5.8,80,0.00,,---,0.00,VWS V14.01,2013-02-09 15:52:00,
2013-02-09 16:57:00,31.6,26.2,29.91,WNW,288,4.9,5.4,80,0.00,,---,0.00,VWS V14.01,2013-02-09 15:57:00,
2013-02-09 17:02:00,31.6,26.2,29.91,West,278,5.8,6.3,80,0.00,,---,0.00,VWS V14.01,2013-02-09 16:02:00,
2013-02-09 17:07:00,31.6,26.2,29.91,WNW,299,4.5,6.7,80,0.00,,---,0.00,VWS V14.01,2013-02-09 16:07:00,
2013-02-09 17:12:00,31.6,26.2,29.91,West,280,5.4,7.4,80,0.00,,---,0.00,VWS V14.01,2013-02-09 16:12:00,
2013-02-09 17:17:00,31.5,26.0,29.91,WNW,283,5.8,6.7,80,0.00,,---,0.00,VWS V14.01,2013-02-09 16:17:00,
2013-02-09 17:22:00,31.3,26.1,29.91,West,274,6.9,7.4,81,0.00,,---,0.00,VWS V14.01,2013-02-09 16:22:00,
2013-02-09 17:27:00,31.3,26.1,29.91,WNW,285,4.9,6.7,81,0.00,,---,0.00,VWS V14.01,2013-02-09 16:27:00,
2013-02-09 17:32:00,30.9,25.8,29.91,NNW,328,3.1,5.8,81,0.00,,---,0.00,VWS V14.01,2013-02-09 16:32:00,
2013-02-09 17:37:00,30.9,26.1,29.91,WNW,294,5.8,5.8,82,0.00,,---,0.00,VWS V14.01,2013-02-09 16:37:00,
2013-02-09 17:42:00,30.6,26.0,29.91,WNW,302,6.9,7.8,83,0.00,,---,0.00,VWS V14.01,2013-02-09 16:42:00,
2013-02-09 17:47:00,30.4,26.1,29.91,WNW,289,6.9,8.3,84,0.00,,---,0.00,VWS V14.01,2013-02-09 16:47:00,
2013-02-09 17:52:00,30.4,26.1,29.91,WNW,293,4.9,6.7,84,0.00,,---,0.00,VWS V14.01,2013-02-09 16:52:00,
2013-02-09 17:57:00,30.4,26.4,29.91,WNW,295,3.6,5.8,85,0.00,,---,0.00,VWS V14.01,2013-02-09 16:57:00,
2013-02-09 18:02:00,30.4,26.4,29.91,West,276,5.4,6.9,85,0.00,,---,0.00,VWS V14.01,2013-02-09 17:02:00,
2013-02-09 18:07:00,30.0,26.1,29.91,West,279,5.8,5.8,85,0.00,,---,0.00,VWS V14.01,2013-02-09 17:07:00,
2013-02-09 18:12:00,29.8,26.2,29.91,NNW,335,4.9,4.9,86,0.00,,---,0.00,VWS V14.01,2013-02-09 17:12:00,
2013-02-09 18:17:00,29.8,26.2,29.91,NW,306,3.1,4.0,86,0.00,,---,0.00,VWS V14.01,2013-02-09 17:17:00,
2013-02-09 18:22:00,29.7,26.3,29.91,NW,318,2.7,5.4,87,0.00,,---,0.00,VWS V14.01,2013-02-09 17:22:00,
2013-02-09 18:27:00,29.7,26.3,29.91,WNW,297,3.1,4.5,87,0.00,,---,0.00,VWS V14.01,2013-02-09 17:27:00,
2013-02-09 18:32:00,29.7,26.3,29.91,West,281,4.0,4.0,87,0.00,,---,0.00,VWS V14.01,2013-02-09 17:32:00,
2013-02-09 18:37:00,29.8,26.5,29.91,West,279,4.9,5.4,87,0.00,,---,0.00,VWS V14.01,2013-02-09 17:37:00,
2013-02-09 18:42:00,30.0,26.9,29.91,West,274,3.6,4.5,88,0.00,,---,0.00,VWS V14.01,2013-02-09 17:42:00,
2013-02-09 18:47:00,30.0,26.9,29.91,West,279,5.4,5.4,88,0.00,,---,0.00,VWS V14.01,2013-02-09 17:47:00,
2013-02-09 18:52:00,29.8,26.7,29.91,WNW,287,4.9,4.9,88,0.00,,---,0.00,VWS V14.01,2013-02-09 17:52:00,
2013-02-09 18:57:00,30.0,26.9,29.91,WNW,291,5.8,6.7,88,0.00,,---,0.00,VWS V14.01,2013-02-09 17:57:00,
2013-02-09 19:02:00,30.2,27.1,29.91,West,278,3.6,4.9,88,0.00,,---,0.00,VWS V14.01,2013-02-09 18:02:00,
2013-02-09 19:07:00,30.4,27.5,29.91,WNW,282,4.5,4.5,89,0.00,,---,0.00,VWS V14.01,2013-02-09 18:07:00,
2013-02-09 19:12:00,30.4,27.5,29.91,West,272,7.4,7.4,89,0.00,,---,0.00,VWS V14.01,2013-02-09 18:12:00,
2013-02-09 19:17:00,30.4,27.5,29.91,West,281,6.3,6.3,89,0.00,,---,0.00,VWS V14.01,2013-02-09 18:17:00,
2013-02-09 19:22:00,30.4,27.5,29.91,WNW,286,7.4,7.4,89,0.00,,---,0.00,VWS V14.01,2013-02-09 18:22:00,
2013-02-09 19:27:00,30.4,27.5,29.91,WNW,292,5.4,6.9,89,0.00,,---,0.00,VWS V14.01,2013-02-09 18:27:00,
2013-02-09 19:32:00,30.2,27.4,29.91,WNW,289,7.4,7.4,89,0.00,,---,0.00,VWS V14.01,2013-02-09 18:32:00,
2013-02-09 19:37:00,30.2,27.4,29.91,West,280,6.7,6.9,89,0.00,,---,0.00,VWS V14.01,2013-02-09 18:37:00,
2013-02-09 19:42:00,30.2,27.4,29.91,West,277,6.9,6.9,89,0.00,,---,0.00,VWS V14.01,2013-02-09 18:42:00,
2013-02-09 19:47:00,30.0,27.2,29.91,WNW,291,4.9,5.4,89,0.00,,---,0.00,VWS V14.01,2013-02-09 18:47:00,
2013-02-09 19:52:00,30.2,27.4,29.91,WNW,296,5.8,6.3,89,0.00,,---,0.00,VWS V14.01,2013-02-09 18:52:00,
2013-02-09 19:57:00,30.2,27.4,29.91,West,281,6.7,7.8,89,0.00,,---,0.00,VWS V14.01,2013-02-09 18:57:00,
2013-02-09 20:02:00,30.0,27.2,29.91,WNW,282,5.4,6.7,89,0.00,,---,0.00,VWS V14.01,2013-02-09 19:02:00,
2013-02-09 20:07:00,30.0,27.2,29.91,WNW,290,4.5,6.3,89,0.00,,---,0.00,VWS V14.01,2013-02-09 19:07:00,
2013-02-09 20:12:00,30.2,27.4,29.91,WNW,288,6.7,6.7,89,0.00,,---,0.00,VWS V14.01,2013-02-09 19:12:00,
2013-02-09 20:17:00,30.0,27.2,29.91,WNW,289,7.4,7.4,89,0.00,,---,0.00,VWS V14.01,2013-02-09 19:17:00,
2013-02-09 20:22:00,30.0,27.2,29.91,West,279,2.7,5.8,89,0.00,,---,0.00,VWS V14.01,2013-02-09 19:22:00,
2013-02-09 20:27:00,29.8,27.0,29.91,WNW,282,4.5,6.7,89,0.00,,---,0.00,VWS V14.01,2013-02-09 19:27:00,
2013-02-09 20:32:00,29.8,27.0,29.91,WNW,284,4.5,6.7,89,0.00,,---,0.00,VWS V14.01,2013-02-09 19:32:00,
2013-02-09 20:37:00,29.8,27.0,29.91,WNW,286,6.3,6.9,89,0.00,,---,0.00,VWS V14.01,2013-02-09 19:37:00,
2013-02-09 20:42:00,29.8,27.0,29.91,WNW,287,7.4,7.4,89,0.00,,---,0.00,VWS V14.01,2013-02-09 19:42:00,
2013-02-09 20:47:00,30.0,27.2,29.91,WNW,289,6.7,6.7,89,0.00,,---,0.00,VWS V14.01,2013-02-09 19:47:00,
2013-02-09 20:52:00,30.0,27.2,29.91,West,278,5.4,7.4,89,0.00,,---,0.00,VWS V14.01,2013-02-09 19:52:00,
2013-02-09 20:57:00,29.8,27.0,29.91,NNW,340,4.0,6.9,89,0.00,,---,0.00,VWS V14.01,2013-02-09 19:57:00,
2013-02-09 21:02:00,29.7,26.8,29.91,WNW,297,4.5,6.9,89,0.00,,---,0.00,VWS V14.01,2013-02-09 20:02:00,
2013-02-09 21:07:00,29.3,26.5,29.91,WNW,302,5.8,6.7,89,0.00,,---,0.00,VWS V14.01,2013-02-09 20:07:00,
2013-02-09 21:12:00,29.3,26.7,29.91,WNW,282,8.7,8.7,90,0.00,,---,0.00,VWS V14.01,2013-02-09 20:12:00,
2013-02-09 21:17:00,29.1,26.6,29.91,WNW,296,6.9,6.9,90,0.00,,---,0.00,VWS V14.01,2013-02-09 20:17:00,
2013-02-09 21:22:00,29.3,27.0,29.91,WNW,289,6.7,8.3,91,0.00,,---,0.00,VWS V14.01,2013-02-09 20:22:00,
2013-02-09 21:27:00,29.1,26.8,29.91,NW,316,5.8,6.9,91,0.00,,---,0.00,VWS V14.01,2013-02-09 20:27:00,
2013-02-09 21:32:00,28.9,26.6,29.91,NW,318,4.0,6.9,91,0.00,,---,0.00,VWS V14.01,2013-02-09 20:32:00,
2013-02-09 21:37:00,28.9,26.6,29.88,NNW,338,4.0,6.9,91,0.00,,---,0.00,VWS V14.01,2013-02-09 20:37:00,
2013-02-09 21:42:00,28.8,26.5,29.88,NNW,342,5.4,6.9,91,0.00,,---,0.00,VWS V14.01,2013-02-09 20:42:00,
2013-02-09 21:47:00,28.8,26.5,29.88,North,351,4.0,6.3,91,0.00,,---,0.00,VWS V14.01,2013-02-09 20:47:00,
2013-02-09 21:52:00,28.6,26.3,29.88,NNW,342,4.0,6.7,91,0.00,,---,0.00,VWS V14.01,2013-02-09 20:52:00,
2013-02-09 21:57:00,28.6,26.6,29.88,WNW,297,5.8,6.7,92,0.00,,---,0.00,VWS V14.01,2013-02-09 20:57:00,
2013-02-09 22:03:00,28.6,26.6,29.88,WNW,290,3.6,6.7,92,0.00,,---,0.00,VWS V14.01,2013-02-09 21:03:00,
2013-02-09 22:08:00,28.8,26.7,29.88,WNW,287,4.0,4.0,92,0.00,,---,0.00,VWS V14.01,2013-02-09 21:08:00,
2013-02-09 22:13:00,28.8,26.7,29.88,WNW,284,2.7,4.0,92,0.00,,---,0.00,VWS V14.01,2013-02-09 21:13:00,
2013-02-09 22:18:00,28.8,26.7,29.88,NW,315,3.6,5.8,92,0.00,,---,0.00,VWS V14.01,2013-02-09 21:18:00,
2013-02-09 22:23:00,28.6,26.6,29.91,WNW,284,2.7,4.9,92,0.00,,---,0.00,VWS V14.01,2013-02-09 21:23:00,
2013-02-09 22:28:00,28.6,26.6,29.91,NNW,343,2.7,2.7,92,0.00,,---,0.00,VWS V14.01,2013-02-09 21:28:00,
2013-02-09 22:33:00,28.4,26.4,29.91,NNW,328,4.5,4.5,92,0.00,,---,0.00,VWS V14.01,2013-02-09 21:33:00,
2013-02-09 22:38:00,28.4,26.4,29.91,NNW,332,3.1,4.0,92,0.00,,---,0.00,VWS V14.01,2013-02-09 21:38:00,
2013-02-09 22:43:00,28.4,26.4,29.91,NNW,338,3.1,4.5,92,0.00,,---,0.00,VWS V14.01,2013-02-09 21:43:00,
2013-02-09 22:48:00,28.4,26.4,29.91,NW,304,2.7,4.5,92,0.00,,---,0.00,VWS V14.01,2013-02-09 21:48:00,
2013-02-09 22:53:00,28.6,26.6,29.91,NW,315,3.1,4.5,92,0.00,,---,0.00,VWS V14.01,2013-02-09 21:53:00,
2013-02-09 22:58:00,28.6,26.6,29.91,NNW,330,3.6,4.0,92,0.00,,---,0.00,VWS V14.01,2013-02-09 21:58:00,
2013-02-09 23:03:00,28.8,26.7,29.91,WNW,282,3.1,6.7,92,0.00,,---,0.00,VWS V14.01,2013-02-09 22:03:00,
2013-02-09 23:08:00,28.8,26.7,29.91,NW,304,0.0,4.0,92,0.00,,---,0.00,VWS V14.01,2013-02-09 22:08:00,
2013-02-09 23:13:00,28.9,26.9,29.91,WNW,303,3.6,3.6,92,0.00,,---,0.00,VWS V14.01,2013-02-09 22:13:00,
2013-02-09 23:18:00,28.9,26.9,29.91,WNW,298,0.0,3.1,92,0.00,,---,0.00,VWS V14.01,2013-02-09 22:18:00,
2013-02-09 23:23:00,28.9,26.9,29.91,NW,315,3.6,4.5,92,0.00,,---,0.00,VWS V14.01,2013-02-09 22:23:00,
2013-02-09 23:28:00,28.9,26.9,29.91,North,356,4.9,5.4,92,0.00,,---,0.00,VWS V14.01,2013-02-09 22:28:00,
2013-02-09 23:33:00,28.8,26.7,29.91,North,6,2.7,4.9,92,0.00,,---,0.00,VWS V14.01,2013-02-09 22:33:00,
2013-02-09 23:38:00,28.8,26.5,29.91,NNW,340,2.7,4.9,91,0.00,,---,0.00,VWS V14.01,2013-02-09 22:38:00,
2013-02-09 23:43:00,28.8,26.5,29.91,North,351,4.9,5.4,91,0.00,,---,0.00,VWS V14.01,2013-02-09 22:43:00,
2013-02-09 23:48:00,28.8,26.5,29.91,North,1,5.8,6.3,91,0.00,,---,0.00,VWS V14.01,2013-02-09 22:48:00,
2013-02-09 23:53:00,28.8,26.2,29.91,NNW,328,3.6,5.8,90,0.00,,---,0.00,VWS V14.01,2013-02-09 22:53:00,
2013-02-09 23:58:00,28.8,26.2,29.91,WNW,289,4.9,4.9,90,0.00,,---,0.00,VWS V14.01,2013-02-09 22:58:00,